sensor_id;sensor_type;location;lat;lon;timestamp;temperature;humidity
10536;DHT22;5316;49.538;8.352;2023-03-03T08:34:48;3.10;1.00
10536;DHT22;5316;49.538;8.352;2023-03-03T08:37:15;3.30;1.00
10536;DHT22;5316;49.538;8.352;2023-03-03T08:39:42;3.30;1.00
10536;DHT22;5316;49.538;8.352;2023-03-03T08:42:10;3.40;99.90
10536;DHT22;5316;49.538;8.352;2023-03-03T08:44:38;3.30;99.90
10536;DHT22;5316;49.538;8.352;2023-03-03T08:47:06;3.40;99.90
10536;DHT22;5316;49.538;8.352;2023-03-03T08:49:33;3.40;99.90
10536;DHT22;5316;49.538;8.352;2023-03-03T08:52:02;3.50;7.80
10536;DHT22;5316;49.538;8.352;2023-03-03T08:54:28;3.60;1.00
10536;DHT22;5316;49.538;8.352;2023-03-03T08:56:56;3.60;1.00
10536;DHT22;5316;49.538;8.352;2023-03-03T08:59:23;3.50;1.00
10536;DHT22;5316;49.538;8.352;2023-03-03T09:01:50;3.50;1.00
10536;DHT22;5316;49.538;8.352;2023-03-03T09:04:17;3.50;1.00
10536;DHT22;5316;49.538;8.352;2023-03-03T09:06:44;3.50;1.00
10536;DHT22;5316;49.538;8.352;2023-03-03T09:09:12;3.60;1.00
10536;DHT22;5316;49.538;8.352;2023-03-03T09:11:46;3.60;1.00
10536;DHT22;5316;49.538;8.352;2023-03-03T09:14:14;3.70;1.00
10536;DHT22;5316;49.538;8.352;2023-03-03T09:16:46;3.60;1.90
10536;DHT22;5316;49.538;8.352;2023-03-03T09:19:22;3.70;99.90
10536;DHT22;5316;49.538;8.352;2023-03-03T09:21:50;3.90;1.00
10536;DHT22;5316;49.538;8.352;2023-03-03T09:24:25;3.80;1.00
10536;DHT22;5316;49.538;8.352;2023-03-03T09:26:53;3.90;99.90
10536;DHT22;5316;49.538;8.352;2023-03-03T09:29:26;4.00;99.90
10536;DHT22;5316;49.538;8.352;2023-03-03T09:31:57;4.10;79.60
10536;DHT22;5316;49.538;8.352;2023-03-03T09:34:36;4.20;1.00
10536;DHT22;5316;49.538;8.352;2023-03-03T09:37:16;4.20;1.00
10536;DHT22;5316;49.538;8.352;2023-03-03T09:39:48;4.30;1.00
10536;DHT22;5316;49.538;8.352;2023-03-03T09:42:33;4.40;99.90
10536;DHT22;5316;49.538;8.352;2023-03-03T09:48:24;4.40;99.90
10536;DHT22;5316;49.538;8.352;2023-03-03T09:51:01;4.40;99.90
10536;DHT22;5316;49.538;8.352;2023-03-03T09:53:41;4.50;99.90
10536;DHT22;5316;49.538;8.352;2023-03-03T09:56:18;4.40;63.30
10536;DHT22;5316;49.538;8.352;2023-03-03T09:59:03;4.50;1.00
10536;DHT22;5316;49.538;8.352;2023-03-03T10:01:54;4.50;1.00
10536;DHT22;5316;49.538;8.352;2023-03-03T10:04:41;4.50;4.70
10536;DHT22;5316;49.538;8.352;2023-03-03T10:07:29;4.50;1.00
10536;DHT22;5316;49.538;8.352;2023-03-03T10:10:28;4.60;99.90
10536;DHT22;5316;49.538;8.352;2023-03-03T10:13:09;4.70;92.70
10536;DHT22;5316;49.538;8.352;2023-03-03T10:15:43;4.80;1.00
10536;DHT22;5316;49.538;8.352;2023-03-03T10:18:23;4.80;2.00
10536;DHT22;5316;49.538;8.352;2023-03-03T10:21:03;4.80;3.20
10536;DHT22;5316;49.538;8.352;2023-03-03T10:23:51;4.90;82.60
10536;DHT22;5316;49.538;8.352;2023-03-03T10:26:29;5.00;1.00
10536;DHT22;5316;49.538;8.352;2023-03-03T10:29:21;5.10;99.90
10536;DHT22;5316;49.538;8.352;2023-03-03T10:32:01;5.20;99.90
10536;DHT22;5316;49.538;8.352;2023-03-03T10:34:56;5.20;99.90
10536;DHT22;5316;49.538;8.352;2023-03-03T10:37:45;5.30;99.90
10536;DHT22;5316;49.538;8.352;2023-03-03T10:40:22;5.20;1.00
10536;DHT22;5316;49.538;8.352;2023-03-03T10:43:11;5.20;99.90
10536;DHT22;5316;49.538;8.352;2023-03-03T10:46:18;5.20;99.90
10536;DHT22;5316;49.538;8.352;2023-03-03T10:49:15;5.30;99.90
10536;DHT22;5316;49.538;8.352;2023-03-03T10:52:04;5.40;1.00
10536;DHT22;5316;49.538;8.352;2023-03-03T10:54:47;5.50;99.90
10536;DHT22;5316;49.538;8.352;2023-03-03T10:57:23;5.60;17.30
10536;DHT22;5316;49.538;8.352;2023-03-03T11:00:07;5.70;1.00
10536;DHT22;5316;49.538;8.352;2023-03-03T11:02:51;5.80;1.00
10536;DHT22;5316;49.538;8.352;2023-03-03T11:05:28;5.90;1.00
10536;DHT22;5316;49.538;8.352;2023-03-03T11:08:02;5.90;99.90
10536;DHT22;5316;49.538;8.352;2023-03-03T11:10:49;5.90;1.00
10536;DHT22;5316;49.538;8.352;2023-03-03T11:13:22;6.00;99.90
10536;DHT22;5316;49.538;8.352;2023-03-03T11:18:53;6.10;99.90
10536;DHT22;5316;49.538;8.352;2023-03-03T11:21:30;6.20;1.00
10536;DHT22;5316;49.538;8.352;2023-03-03T11:24:12;6.30;97.60
10536;DHT22;5316;49.538;8.352;2023-03-03T11:26:52;6.40;1.00
10536;DHT22;5316;49.538;8.352;2023-03-03T11:32:40;6.40;1.00
10536;DHT22;5316;49.538;8.352;2023-03-03T11:35:21;6.50;1.00
10536;DHT22;5316;49.538;8.352;2023-03-03T11:37:57;6.60;99.90
10536;DHT22;5316;49.538;8.352;2023-03-03T11:40:26;6.60;99.90
10536;DHT22;5316;49.538;8.352;2023-03-03T11:43:00;6.70;99.90
10536;DHT22;5316;49.538;8.352;2023-03-03T11:45:34;6.80;99.90
10536;DHT22;5316;49.538;8.352;2023-03-03T11:48:07;6.90;94.40
10536;DHT22;5316;49.538;8.352;2023-03-03T11:50:44;7.00;1.00
10536;DHT22;5316;49.538;8.352;2023-03-03T11:53:35;7.10;1.30
10536;DHT22;5316;49.538;8.352;2023-03-03T11:56:12;7.20;1.00
10536;DHT22;5316;49.538;8.352;2023-03-03T11:58:45;7.20;1.00
10536;DHT22;5316;49.538;8.352;2023-03-03T12:01:18;7.30;1.00
10536;DHT22;5316;49.538;8.352;2023-03-03T12:03:48;7.30;1.00
10536;DHT22;5316;49.538;8.352;2023-03-03T12:06:26;7.40;1.00
10536;DHT22;5316;49.538;8.352;2023-03-03T12:09:20;7.40;1.00
10536;DHT22;5316;49.538;8.352;2023-03-03T12:11:52;7.40;1.00
10536;DHT22;5316;49.538;8.352;2023-03-03T12:14:38;7.40;1.00
10536;DHT22;5316;49.538;8.352;2023-03-03T12:17:16;7.50;99.90
10536;DHT22;5316;49.538;8.352;2023-03-03T12:19:51;7.60;99.90
10536;DHT22;5316;49.538;8.352;2023-03-03T12:22:29;7.60;99.90
10536;DHT22;5316;49.538;8.352;2023-03-03T12:25:21;7.60;99.90
10536;DHT22;5316;49.538;8.352;2023-03-03T12:27:53;7.70;99.90
10536;DHT22;5316;49.538;8.352;2023-03-03T12:30:33;7.70;99.90
10536;DHT22;5316;49.538;8.352;2023-03-03T12:33:20;7.60;99.90
10536;DHT22;5316;49.538;8.352;2023-03-03T12:35:53;7.70;99.90
10536;DHT22;5316;49.538;8.352;2023-03-03T12:38:34;7.80;99.90
10536;DHT22;5316;49.538;8.352;2023-03-03T12:41:07;7.90;99.90
10536;DHT22;5316;49.538;8.352;2023-03-03T12:43:46;8.00;99.90
10536;DHT22;5316;49.538;8.352;2023-03-03T12:46:21;8.10;99.90
10536;DHT22;5316;49.538;8.352;2023-03-03T12:48:50;8.20;99.90
10536;DHT22;5316;49.538;8.352;2023-03-03T12:51:26;8.30;62.90
10536;DHT22;5316;49.538;8.352;2023-03-03T12:54:18;8.40;21.20
10536;DHT22;5316;49.538;8.352;2023-03-03T12:56:49;8.50;1.00
10536;DHT22;5316;49.538;8.352;2023-03-03T12:59:23;8.60;1.00
10536;DHT22;5316;49.538;8.352;2023-03-03T13:02:19;8.60;1.00
10536;DHT22;5316;49.538;8.352;2023-03-03T13:04:56;8.60;1.00
10536;DHT22;5316;49.538;8.352;2023-03-03T13:07:31;8.70;1.00
10536;DHT22;5316;49.538;8.352;2023-03-03T13:10:07;8.70;1.00
10536;DHT22;5316;49.538;8.352;2023-03-03T13:12:43;8.70;1.00
10536;DHT22;5316;49.538;8.352;2023-03-03T13:15:18;8.90;99.90
10536;DHT22;5316;49.538;8.352;2023-03-03T13:17:55;8.90;99.90
10536;DHT22;5316;49.538;8.352;2023-03-03T13:20:33;9.10;99.90
10536;DHT22;5316;49.538;8.352;2023-03-03T13:23:07;9.20;99.90
10536;DHT22;5316;49.538;8.352;2023-03-03T13:25:46;9.20;99.90
10536;DHT22;5316;49.538;8.352;2023-03-03T13:28:21;9.40;99.90
10536;DHT22;5316;49.538;8.352;2023-03-03T13:30:56;9.50;99.90
10536;DHT22;5316;49.538;8.352;2023-03-03T13:33:26;9.60;99.90
10536;DHT22;5316;49.538;8.352;2023-03-03T13:35:55;9.70;99.90
10536;DHT22;5316;49.538;8.352;2023-03-03T13:38:26;9.70;99.90
10536;DHT22;5316;49.538;8.352;2023-03-03T13:41:02;9.80;99.90
10536;DHT22;5316;49.538;8.352;2023-03-03T13:43:39;9.90;99.90
10536;DHT22;5316;49.538;8.352;2023-03-03T13:46:15;10.00;99.90
10536;DHT22;5316;49.538;8.352;2023-03-03T13:49:03;10.10;99.90
10536;DHT22;5316;49.538;8.352;2023-03-03T13:51:41;10.30;99.90
10536;DHT22;5316;49.538;8.352;2023-03-03T13:54:19;10.50;98.70
10536;DHT22;5316;49.538;8.352;2023-03-03T13:57:07;10.50;67.60
10536;DHT22;5316;49.538;8.352;2023-03-03T13:59:44;10.70;33.50
10536;DHT22;5316;49.538;8.352;2023-03-03T14:05:14;10.90;1.00
10536;DHT22;5316;49.538;8.352;2023-03-03T14:07:44;11.00;1.00
10536;DHT22;5316;49.538;8.352;2023-03-03T14:10:19;11.10;1.00
10536;DHT22;5316;49.538;8.352;2023-03-03T14:12:53;11.40;1.00
10536;DHT22;5316;49.538;8.352;2023-03-03T14:15:26;11.30;1.00
10536;DHT22;5316;49.538;8.352;2023-03-03T14:20:47;11.30;1.00
10536;DHT22;5316;49.538;8.352;2023-03-03T14:23:18;11.30;1.00
10536;DHT22;5316;49.538;8.352;2023-03-03T14:25:53;11.30;1.00
10536;DHT22;5316;49.538;8.352;2023-03-03T14:28:25;11.30;1.00
10536;DHT22;5316;49.538;8.352;2023-03-03T14:30:54;11.30;1.00
10536;DHT22;5316;49.538;8.352;2023-03-03T14:33:29;11.20;1.00
10536;DHT22;5316;49.538;8.352;2023-03-03T14:36:05;11.30;1.00
10536;DHT22;5316;49.538;8.352;2023-03-03T14:38:39;11.40;1.00
10536;DHT22;5316;49.538;8.352;2023-03-03T14:41:14;11.60;1.00
10536;DHT22;5316;49.538;8.352;2023-03-03T14:43:44;11.70;1.00
10536;DHT22;5316;49.538;8.352;2023-03-03T14:46:30;12.00;1.00
10536;DHT22;5316;49.538;8.352;2023-03-03T14:49:00;12.10;1.00
10536;DHT22;5316;49.538;8.352;2023-03-03T14:51:31;12.10;1.00
10536;DHT22;5316;49.538;8.352;2023-03-03T14:53:58;12.30;1.00
10536;DHT22;5316;49.538;8.352;2023-03-03T14:56:27;12.40;1.00
10536;DHT22;5316;49.538;8.352;2023-03-03T14:59:15;12.60;1.00
10536;DHT22;5316;49.538;8.352;2023-03-03T15:01:44;12.70;1.00
10536;DHT22;5316;49.538;8.352;2023-03-03T15:04:24;12.80;1.00
10536;DHT22;5316;49.538;8.352;2023-03-03T15:06:52;12.40;1.00
10536;DHT22;5316;49.538;8.352;2023-03-03T15:09:24;12.50;1.00
10536;DHT22;5316;49.538;8.352;2023-03-03T15:11:53;12.70;1.00
10536;DHT22;5316;49.538;8.352;2023-03-03T15:14:28;12.80;1.00
10536;DHT22;5316;49.538;8.352;2023-03-03T15:16:57;12.60;1.00
10536;DHT22;5316;49.538;8.352;2023-03-03T15:19:46;12.40;1.00
10536;DHT22;5316;49.538;8.352;2023-03-03T15:22:22;12.50;1.00
10536;DHT22;5316;49.538;8.352;2023-03-03T15:25:01;12.40;1.00
10536;DHT22;5316;49.538;8.352;2023-03-03T15:27:35;12.40;1.00
10536;DHT22;5316;49.538;8.352;2023-03-03T15:30:14;12.50;1.00
10536;DHT22;5316;49.538;8.352;2023-03-03T15:32:49;12.60;1.00
10536;DHT22;5316;49.538;8.352;2023-03-03T15:35:27;12.70;1.00
10536;DHT22;5316;49.538;8.352;2023-03-03T15:38:02;12.80;1.00
10536;DHT22;5316;49.538;8.352;2023-03-03T15:40:34;12.70;1.00
10536;DHT22;5316;49.538;8.352;2023-03-03T15:43:10;13.00;1.00
10536;DHT22;5316;49.538;8.352;2023-03-03T15:45:45;13.10;1.00
10536;DHT22;5316;49.538;8.352;2023-03-03T15:51:16;13.00;1.00
10536;DHT22;5316;49.538;8.352;2023-03-03T15:53:57;12.80;1.00
10536;DHT22;5316;49.538;8.352;2023-03-03T15:56:34;12.60;1.00
10536;DHT22;5316;49.538;8.352;2023-03-03T15:59:16;12.50;1.00
10536;DHT22;5316;49.538;8.352;2023-03-03T16:01:52;12.40;1.00
10536;DHT22;5316;49.538;8.352;2023-03-03T16:04:27;12.40;1.00
10536;DHT22;5316;49.538;8.352;2023-03-03T16:06:59;12.40;1.00
10536;DHT22;5316;49.538;8.352;2023-03-03T16:09:39;12.40;1.00
10536;DHT22;5316;49.538;8.352;2023-03-03T16:12:18;12.20;1.00
10536;DHT22;5316;49.538;8.352;2023-03-03T16:14:55;12.10;1.00
10536;DHT22;5316;49.538;8.352;2023-03-03T16:17:31;12.20;1.00
10536;DHT22;5316;49.538;8.352;2023-03-03T16:20:11;12.10;1.00
10536;DHT22;5316;49.538;8.352;2023-03-03T16:23:13;12.00;1.00
10536;DHT22;5316;49.538;8.352;2023-03-03T16:26:01;11.90;1.00
10536;DHT22;5316;49.538;8.352;2023-03-03T16:28:42;11.70;1.00
10536;DHT22;5316;49.538;8.352;2023-03-03T16:31:20;11.50;1.00
10536;DHT22;5316;49.538;8.352;2023-03-03T16:33:56;11.70;1.00
10536;DHT22;5316;49.538;8.352;2023-03-03T16:36:31;11.10;1.00
10536;DHT22;5316;49.538;8.352;2023-03-03T16:39:05;10.70;1.00
10536;DHT22;5316;49.538;8.352;2023-03-03T16:41:42;10.50;1.00
10536;DHT22;5316;49.538;8.352;2023-03-03T16:47:15;10.00;1.00
10536;DHT22;5316;49.538;8.352;2023-03-03T16:49:52;9.70;3.80
10536;DHT22;5316;49.538;8.352;2023-03-03T16:52:27;9.50;23.20
10536;DHT22;5316;49.538;8.352;2023-03-03T16:54:58;9.50;42.40
10536;DHT22;5316;49.538;8.352;2023-03-03T16:57:33;9.40;63.10
10536;DHT22;5316;49.538;8.352;2023-03-03T17:00:08;9.30;99.90
10536;DHT22;5316;49.538;8.352;2023-03-03T17:02:48;9.10;99.90
10536;DHT22;5316;49.538;8.352;2023-03-03T17:05:26;9.00;99.90
10536;DHT22;5316;49.538;8.352;2023-03-03T17:08:11;8.90;99.90
10536;DHT22;5316;49.538;8.352;2023-03-03T17:10:47;8.80;99.90
10536;DHT22;5316;49.538;8.352;2023-03-03T17:13:38;8.70;99.90
10536;DHT22;5316;49.538;8.352;2023-03-03T17:16:13;8.60;99.90
10536;DHT22;5316;49.538;8.352;2023-03-03T17:18:55;8.50;99.90
10536;DHT22;5316;49.538;8.352;2023-03-03T17:21:38;8.40;99.90
10536;DHT22;5316;49.538;8.352;2023-03-03T17:24:15;8.30;99.90
10536;DHT22;5316;49.538;8.352;2023-03-03T17:26:54;8.20;99.90
10536;DHT22;5316;49.538;8.352;2023-03-03T17:29:46;8.10;99.90
10536;DHT22;5316;49.538;8.352;2023-03-03T17:32:32;8.10;99.90
10536;DHT22;5316;49.538;8.352;2023-03-03T17:35:20;7.90;99.90
10536;DHT22;5316;49.538;8.352;2023-03-03T17:38:00;7.80;99.90
10536;DHT22;5316;49.538;8.352;2023-03-03T17:40:45;7.80;1.00
10536;DHT22;5316;49.538;8.352;2023-03-03T17:43:16;7.70;1.00
10536;DHT22;5316;49.538;8.352;2023-03-03T17:45:46;7.60;1.00
10536;DHT22;5316;49.538;8.352;2023-03-03T17:48:37;7.50;1.00
10536;DHT22;5316;49.538;8.352;2023-03-03T17:51:18;7.50;1.00
10536;DHT22;5316;49.538;8.352;2023-03-03T17:54:00;7.40;1.00
10536;DHT22;5316;49.538;8.352;2023-03-03T17:56:32;7.30;1.00
10536;DHT22;5316;49.538;8.352;2023-03-03T17:59:28;7.30;1.00
10536;DHT22;5316;49.538;8.352;2023-03-03T18:02:13;7.20;1.00
10536;DHT22;5316;49.538;8.352;2023-03-03T18:07:59;7.10;1.00
10536;DHT22;5316;49.538;8.352;2023-03-03T18:10:58;7.10;1.00
10536;DHT22;5316;49.538;8.352;2023-03-03T18:13:47;7.00;1.00
10536;DHT22;5316;49.538;8.352;2023-03-03T18:16:27;6.90;1.00
10536;DHT22;5316;49.538;8.352;2023-03-03T18:19:07;6.90;1.00
10536;DHT22;5316;49.538;8.352;2023-03-03T18:21:42;6.80;1.00
10536;DHT22;5316;49.538;8.352;2023-03-03T18:24:29;6.70;1.00
10536;DHT22;5316;49.538;8.352;2023-03-03T18:27:27;6.70;1.00
10536;DHT22;5316;49.538;8.352;2023-03-03T18:36:14;6.50;1.00
10536;DHT22;5316;49.538;8.352;2023-03-03T18:39:01;6.50;1.00
10536;DHT22;5316;49.538;8.352;2023-03-03T18:41:30;6.40;16.50
10536;DHT22;5316;49.538;8.352;2023-03-03T18:43:59;6.20;81.90
10536;DHT22;5316;49.538;8.352;2023-03-03T18:46:47;6.20;99.90
10536;DHT22;5316;49.538;8.352;2023-03-03T18:49:15;6.00;99.90
10536;DHT22;5316;49.538;8.352;2023-03-03T18:54:34;5.90;99.90
10536;DHT22;5316;49.538;8.352;2023-03-03T18:57:15;5.90;99.90
10536;DHT22;5316;49.538;8.352;2023-03-03T18:59:54;5.90;1.00
10536;DHT22;5316;49.538;8.352;2023-03-03T19:02:32;5.80;1.00
10536;DHT22;5316;49.538;8.352;2023-03-03T19:05:17;5.80;1.00
10536;DHT22;5316;49.538;8.352;2023-03-03T19:07:56;5.80;1.00
10536;DHT22;5316;49.538;8.352;2023-03-03T19:10:50;5.70;1.00
10536;DHT22;5316;49.538;8.352;2023-03-03T19:13:37;5.60;1.00
10536;DHT22;5316;49.538;8.352;2023-03-03T19:16:07;5.50;1.00
10536;DHT22;5316;49.538;8.352;2023-03-03T19:18:46;5.40;99.90
10536;DHT22;5316;49.538;8.352;2023-03-03T19:21:27;5.30;99.90
10536;DHT22;5316;49.538;8.352;2023-03-03T19:23:57;5.20;1.00
10536;DHT22;5316;49.538;8.352;2023-03-03T19:35:53;4.90;99.90
10536;DHT22;5316;49.538;8.352;2023-03-03T19:38:32;4.80;99.90
10536;DHT22;5316;49.538;8.352;2023-03-03T19:41:24;4.70;1.00
10536;DHT22;5316;49.538;8.352;2023-03-03T19:44:13;4.60;99.90
10536;DHT22;5316;49.538;8.352;2023-03-03T19:46:57;4.50;99.90
10536;DHT22;5316;49.538;8.352;2023-03-03T19:49:51;4.50;99.90
10536;DHT22;5316;49.538;8.352;2023-03-03T19:52:43;4.40;1.00
10536;DHT22;5316;49.538;8.352;2023-03-03T19:55:23;4.30;1.00
10536;DHT22;5316;49.538;8.352;2023-03-03T19:58:31;4.20;60.90
10536;DHT22;5316;49.538;8.352;2023-03-03T20:01:10;4.20;99.90
10536;DHT22;5316;49.538;8.352;2023-03-03T20:07:00;4.10;99.90
10536;DHT22;5316;49.538;8.352;2023-03-03T20:09:52;4.00;1.00
10536;DHT22;5316;49.538;8.352;2023-03-03T20:13:01;4.00;1.00
10536;DHT22;5316;49.538;8.352;2023-03-03T20:16:13;3.90;99.90
10536;DHT22;5316;49.538;8.352;2023-03-03T20:33:17;3.60;91.30
10536;DHT22;5316;49.538;8.352;2023-03-03T20:36:17;3.60;99.90
10536;DHT22;5316;49.538;8.352;2023-03-03T22:34:21;2.10;1.50
10536;DHT22;5316;49.538;8.352;2023-03-03T22:36:53;2.10;51.10
10536;DHT22;5316;49.538;8.352;2023-03-03T22:39:22;2.10;92.80
10536;DHT22;5316;49.538;8.352;2023-03-03T22:41:50;2.00;99.90
10536;DHT22;5316;49.538;8.352;2023-03-03T22:48:05;1.90;99.90
10536;DHT22;5316;49.538;8.352;2023-03-03T22:57:40;1.90;99.90
10536;DHT22;5316;49.538;8.352;2023-03-03T23:04:26;1.80;99.90
10536;DHT22;5316;49.538;8.352;2023-03-03T23:07:58;1.70;99.90
10536;DHT22;5316;49.538;8.352;2023-03-03T23:11:48;1.70;99.90
10536;DHT22;5316;49.538;8.352;2023-03-03T23:18:55;1.60;99.90
10536;DHT22;5316;49.538;8.352;2023-03-03T23:21:23;1.50;99.90
10536;DHT22;5316;49.538;8.352;2023-03-03T23:24:59;1.50;99.90
10536;DHT22;5316;49.538;8.352;2023-03-03T23:27:27;1.50;99.90
10536;DHT22;5316;49.538;8.352;2023-03-03T23:30:12;1.40;99.90
10536;DHT22;5316;49.538;8.352;2023-03-03T23:32:43;1.40;1.00
10536;DHT22;5316;49.538;8.352;2023-03-03T23:35:14;1.30;1.00
10536;DHT22;5316;49.538;8.352;2023-03-03T23:37:43;1.20;1.00
10536;DHT22;5316;49.538;8.352;2023-03-03T23:40:15;1.20;1.00
10536;DHT22;5316;49.538;8.352;2023-03-03T23:42:44;1.20;1.00
10536;DHT22;5316;49.538;8.352;2023-03-03T23:45:53;1.20;1.00
10536;DHT22;5316;49.538;8.352;2023-03-03T23:49:24;1.20;1.00
